Time;durP1;ratioP1;P1;durP2;ratioP2;P2;SDS_P1;SDS_P2;PMS_P1;PMS_P2;Temp;Humidity;BMP_temperature;BMP_pressure;BME280_temperature;BME280_humidity;BME280_pressure;Samples;Min_cycle;Max_cycle;Signal;HPM_P1;HPM_P2
2021/12/11 00:02:29;;;;;;;4.78;1.70;;;3.50;99.90;;;;;;6316031;28;20073;-82
2021/12/11 00:05:30;;;;;;;3.67;1.73;;;;;;;;;;6316899;28;20032;-81
2021/12/11 00:08:31;;;;;;;2.85;1.98;;;;;;;;;;6317964;28;20020;-84
2021/12/11 00:11:35;;;;;;;3.97;2.78;;;3.60;99.90;;;;;;6316520;28;20032;-82
2021/12/11 00:14:44;;;;;;;4.22;2.53;;;3.70;99.90;;;;;;6282856;28;20409;-82
2021/12/11 00:17:45;;;;;;;2.22;1.75;;;3.40;99.90;;;;;;6300139;28;20016;-82
2021/12/11 00:20:59;;;;;;;4.85;1.67;;;3.50;99.90;;;;;;6316928;28;20481;-82
2021/12/11 00:24:36;;;;;;;2.10;1.67;;;3.50;99.90;;;;;;6300190;28;20028;-82
2021/12/11 00:27:39;;;;;;;5.30;2.35;;;3.60;99.90;;;;;;6234777;28;20049;-82
2021/12/11 00:30:42;;;;;;;3.75;1.90;;;3.60;99.90;;;;;;6247751;28;21092;-83
2021/12/11 00:33:42;;;;;;;4.60;1.60;;;3.40;99.90;;;;;;6231145;28;20075;-82
2021/12/11 00:36:57;;;;;;;3.47;1.90;;;3.40;99.90;;;;;;6247764;28;20037;-82
2021/12/11 00:40:03;;;;;;;1.73;1.30;;;3.60;99.90;;;;;;6246148;28;20025;-82
2021/12/11 00:43:05;;;;;;;3.78;1.92;;;3.50;99.90;;;;;;6247818;28;20035;-81
2021/12/11 00:46:07;;;;;;;2.53;2.00;;;3.50;99.90;;;;;;6248248;28;20033;-82
2021/12/11 00:49:15;;;;;;;3.97;1.80;;;3.60;99.90;;;;;;6247964;28;20037;-82
2021/12/11 00:52:16;;;;;;;3.30;1.90;;;3.40;99.90;;;;;;6247558;28;20065;-82
2021/12/11 00:55:22;;;;;;;3.28;1.90;;;3.50;99.90;;;;;;6233670;28;20051;-83
2021/12/11 00:58:26;;;;;;;1.67;1.55;;;3.50;99.90;;;;;;6252329;28;20041;-82
2021/12/11 01:01:33;;;;;;;4.22;2.03;;;3.30;99.90;;;;;;6252460;28;20127;-82
2021/12/11 01:04:43;;;;;;;3.95;2.60;;;3.60;99.90;;;;;;6290044;28;20078;-82
2021/12/11 01:07:44;;;;;;;6.95;2.40;;;3.40;99.90;;;;;;6304564;28;20479;-82
2021/12/11 01:10:52;;;;;;;3.85;2.00;;;4.60;99.90;;;;;;6303917;28;20016;-83
2021/12/11 01:14:34;;;;;;;1.77;1.65;;;3.50;99.90;;;;;;6303508;28;20084;-82
2021/12/11 01:17:58;;;;;;;4.23;1.80;;;3.60;99.90;;;;;;6308272;28;20543;-83
2021/12/11 01:21:13;;;;;;;2.85;1.63;;;3.20;99.90;;;;;;6306624;28;20069;-83
2021/12/11 01:24:28;;;;;;;2.08;1.48;;;3.50;99.90;;;;;;6305656;28;20481;-83
2021/12/11 01:27:29;;;;;;;1.98;1.65;;;;;;;;;;6290287;28;20028;-83
2021/12/11 01:30:35;;;;;;;1.70;1.42;;;3.30;99.90;;;;;;6302560;28;20473;-83
2021/12/11 01:33:36;;;;;;;3.53;2.90;;;3.50;99.90;;;;;;6286789;28;20067;-83
2021/12/11 01:36:36;;;;;;;3.85;1.88;;;3.30;99.90;;;;;;6303042;28;20072;-83
2021/12/11 01:39:39;;;;;;;3.13;1.85;;;4.00;99.90;;;;;;6302727;28;20067;-82
2021/12/11 01:42:40;;;;;;;2.85;1.88;;;3.60;99.90;;;;;;6303688;28;20035;-83
2021/12/11 01:45:47;;;;;;;1.92;1.80;;;3.50;99.90;;;;;;6285858;28;20523;-82
2021/12/11 01:48:49;;;;;;;2.58;2.00;;;3.50;99.90;;;;;;6286590;28;20020;-83
2021/12/11 01:51:53;;;;;;;2.83;1.80;;;3.60;99.90;;;;;;6285943;28;20032;-82
2021/12/11 01:54:53;;;;;;;1.88;1.58;;;3.50;99.90;;;;;;6285966;28;20371;-82
2021/12/11 01:57:54;;;;;;;3.28;1.80;;;3.50;99.90;;;;;;6320613;28;20024;-83
2021/12/11 02:00:58;;;;;;;2.92;1.55;;;3.50;99.90;;;;;;6302579;28;20059;-82
2021/12/11 02:03:59;;;;;;;1.77;1.60;;;3.50;99.90;;;;;;6285762;28;20039;-82
2021/12/11 02:07:08;;;;;;;3.50;2.08;;;3.70;99.90;;;;;;6317919;28;20036;-82
2021/12/11 02:10:22;;;;;;;2.67;1.80;;;5.50;99.90;;;;;;6303560;28;20036;-83
2021/12/11 02:13:41;;;;;;;5.10;2.17;;;3.40;99.90;;;;;;6302401;28;20035;-82
2021/12/11 02:16:45;;;;;;;2.60;2.17;;;3.60;99.90;;;;;;6303960;28;20028;-82
2021/12/11 02:19:47;;;;;;;4.90;2.30;;;3.90;99.90;;;;;;6302388;28;20062;-83
2021/12/11 02:22:48;;;;;;;3.90;2.35;;;3.50;99.90;;;;;;6301897;28;20025;-82
2021/12/11 02:25:50;;;;;;;2.85;2.00;;;3.50;99.90;;;;;;6285497;28;20374;-83
2021/12/11 02:28:54;;;;;;;3.65;1.88;;;3.90;99.90;;;;;;6284715;28;20101;-82
2021/12/11 02:32:02;;;;;;;4.97;2.30;;;3.50;99.90;;;;;;6285470;28;20048;-83
2021/12/11 02:35:23;;;;;;;3.03;1.85;;;3.60;99.90;;;;;;6302156;28;20551;-82
2021/12/11 02:38:26;;;;;;;2.85;2.15;;;3.50;99.90;;;;;;6287210;28;20539;-83
2021/12/11 02:41:53;;;;;;;3.55;1.90;;;3.30;99.90;;;;;;6318488;28;20032;-82
2021/12/11 02:44:57;;;;;;;6.22;2.50;;;3.80;99.90;;;;;;6318263;28;20032;-83
2021/12/11 02:48:15;;;;;;;3.47;2.28;;;3.40;99.90;;;;;;6301434;28;20026;-82
2021/12/11 02:51:19;;;;;;;4.03;2.40;;;3.60;99.90;;;;;;6301886;28;20417;-82
2021/12/11 02:54:23;;;;;;;6.38;2.30;;;3.50;99.90;;;;;;6284530;28;20055;-82
2021/12/11 02:57:31;;;;;;;3.20;2.20;;;3.40;99.90;;;;;;6284863;28;20084;-83
2021/12/11 03:00:40;;;;;;;2.20;2.00;;;3.30;99.90;;;;;;6301684;28;20024;-82
2021/12/11 03:03:43;;;;;;;2.72;2.13;;;3.40;99.90;;;;;;6285640;28;20032;-83
2021/12/11 03:06:48;;;;;;;2.72;2.20;;;3.50;99.90;;;;;;6284671;28;20028;-83
2021/12/11 03:09:52;;;;;;;2.42;1.95;;;3.40;99.90;;;;;;6301639;28;20232;-82
2021/12/11 03:12:55;;;;;;;2.85;2.00;;;;;;;;;;6284307;28;20036;-81
2021/12/11 03:15:56;;;;;;;3.47;2.15;;;3.60;99.90;;;;;;6300853;28;20050;-82
2021/12/11 03:18:57;;;;;;;2.97;2.00;;;;;;;;;;6283483;28;20739;-82
2021/12/11 03:21:59;;;;;;;6.60;2.30;;;3.40;99.90;;;;;;6317570;28;20355;-82
2021/12/11 03:25:01;;;;;;;3.03;2.30;;;;;;;;;;6284173;28;20059;-82
2021/12/11 03:28:02;;;;;;;2.38;1.85;;;3.50;99.90;;;;;;6300322;28;20028;-81
2021/12/11 03:31:03;;;;;;;4.00;2.25;;;3.50;99.90;;;;;;6300423;28;20071;-83
2021/12/11 03:34:10;;;;;;;4.47;2.63;;;3.40;99.90;;;;;;6317180;28;20044;-82
2021/12/11 03:37:12;;;;;;;2.97;2.40;;;3.30;99.90;;;;;;6301132;28;20020;-82
2021/12/11 03:40:13;;;;;;;3.25;2.20;;;3.50;99.90;;;;;;6300477;28;20020;-83
2021/12/11 03:43:17;;;;;;;4.22;2.17;;;3.40;99.90;;;;;;6300295;28;20718;-84
2021/12/11 03:46:17;;;;;;;2.53;2.30;;;3.30;99.90;;;;;;6283419;28;20111;-84
2021/12/11 03:49:18;;;;;;;2.85;2.20;;;;;;;;;;6300297;28;20042;-83
2021/12/11 03:52:19;;;;;;;4.30;2.33;;;3.30;99.90;;;;;;6300335;28;20028;-84
2021/12/11 03:55:24;;;;;;;2.83;1.80;;;3.30;99.90;;;;;;6316870;28;20488;-82
2021/12/11 03:58:24;;;;;;;3.45;2.13;;;3.30;99.90;;;;;;6299419;28;20026;-83
2021/12/11 04:01:31;;;;;;;3.55;2.20;;;3.50;99.90;;;;;;6282883;28;20438;-83
2021/12/11 04:04:36;;;;;;;3.75;2.40;;;3.20;99.90;;;;;;6300186;28;20106;-83
2021/12/11 04:07:42;;;;;;;4.32;2.17;;;3.20;99.90;;;;;;6299748;28;20069;-84
2021/12/11 04:10:43;;;;;;;3.33;2.30;;;3.40;99.90;;;;;;6299524;28;20098;-83
2021/12/11 04:13:44;;;;;;;3.67;2.50;;;3.30;99.90;;;;;;6282677;28;20471;-83
2021/12/11 04:16:45;;;;;;;2.42;2.22;;;5.70;99.90;;;;;;6282535;28;20049;-85
2021/12/11 04:19:46;;;;;;;4.00;2.17;;;5.30;99.90;;;;;;6299130;28;20024;-84
2021/12/11 04:22:46;;;;;;;4.80;2.58;;;4.40;99.90;;;;;;6300115;28;20090;-83
2021/12/11 04:25:48;;;;;;;3.65;2.88;;;3.70;99.90;;;;;;6282756;28;20032;-82
2021/12/11 04:28:49;;;;;;;6.23;2.90;;;3.30;99.90;;;;;;6283673;28;20024;-83
2021/12/11 04:31:50;;;;;;;3.92;2.97;;;3.20;99.90;;;;;;6304114;28;20516;-83
2021/12/11 04:34:51;;;;;;;3.75;2.50;;;3.30;99.90;;;;;;6304802;28;20035;-83
2021/12/11 04:37:51;;;;;;;2.58;2.38;;;2.90;99.90;;;;;;6321666;28;20031;-82
2021/12/11 04:40:56;;;;;;;4.07;2.35;;;3.10;99.90;;;;;;6303503;28;20030;-83
2021/12/11 04:43:57;;;;;;;3.15;2.40;;;4.40;99.90;;;;;;6305096;28;20020;-82
2021/12/11 04:46:58;;;;;;;3.38;2.40;;;2.90;99.90;;;;;;6287858;28;20036;-83
2021/12/11 04:50:04;;;;;;;4.47;2.20;;;2.80;99.90;;;;;;6287735;28;20429;-83
2021/12/11 04:53:18;;;;;;;3.40;2.65;;;2.90;99.90;;;;;;6321263;28;20020;-82
2021/12/11 05:12:49;;;;;;;2.90;2.60;;;2.80;99.90;;;;;;6206567;28;20118;-83
2021/12/11 05:15:51;;;;;;;3.35;2.58;;;3.00;99.90;;;;;;6194598;28;20142;-83
2021/12/11 05:18:51;;;;;;;2.70;2.50;;;1.30;99.90;;;;;;6202830;28;20066;-83
2021/12/11 05:21:52;;;;;;;3.78;2.50;;;2.70;99.90;;;;;;6202754;28;20064;-83
2021/12/11 05:24:54;;;;;;;5.32;3.90;;;2.60;99.90;;;;;;6202151;28;20044;-83
2021/12/11 05:27:55;;;;;;;4.40;3.37;;;;;;;;;;6197314;28;20038;-83
2021/12/11 05:30:56;;;;;;;3.97;2.97;;;2.40;99.90;;;;;;6218412;28;20829;-83
2021/12/11 05:33:57;;;;;;;5.10;2.97;;;;;;;;;;6218667;28;20046;-84
2021/12/11 05:36:58;;;;;;;5.68;3.08;;;;;;;;;;6218865;28;20157;-84
2021/12/11 05:39:59;;;;;;;4.40;2.63;;;2.40;99.90;;;;;;6218699;28;20034;-83
2021/12/11 05:42:59;;;;;;;3.90;3.10;;;2.20;99.90;;;;;;6213262;28;20033;-84
2021/12/11 05:46:00;;;;;;;7.50;2.90;;;;;;;;;;6226760;28;20037;-83
2021/12/11 05:49:01;;;;;;;4.13;2.67;;;;;;;;;;6256764;28;20043;-82
2021/12/11 05:52:06;;;;;;;5.97;2.95;;;2.20;99.90;;;;;;6302916;28;20024;-82
2021/12/11 05:55:09;;;;;;;4.05;2.80;;;2.00;99.90;;;;;;6302695;28;20061;-83
2021/12/11 05:58:12;;;;;;;6.47;2.85;;;;;;;;;;6303268;28;20028;-84
2021/12/11 06:01:20;;;;;;;3.25;2.85;;;2.10;99.90;;;;;;6303170;28;20028;-84
2021/12/11 06:04:27;;;;;;;4.50;2.90;;;1.90;99.90;;;;;;6286638;28;20454;-83
2021/12/11 06:07:29;;;;;;;3.70;3.00;;;2.40;99.90;;;;;;6286392;28;20072;-83
2021/12/11 06:10:29;;;;;;;3.63;3.03;;;2.00;99.90;;;;;;6302606;28;20050;-84
2021/12/11 06:13:30;;;;;;;3.55;3.15;;;1.90;99.90;;;;;;6285598;28;20032;-83
2021/12/11 06:16:31;;;;;;;4.05;3.22;;;;;;;;;;6301661;28;20028;-85
2021/12/11 06:19:32;;;;;;;5.88;3.40;;;2.20;99.90;;;;;;6302308;28;20031;-82
2021/12/11 06:22:34;;;;;;;4.70;3.10;;;2.50;99.90;;;;;;6302241;28;20031;-84
2021/12/11 06:25:34;;;;;;;4.18;3.03;;;1.90;99.90;;;;;;6301848;28;20060;-83
2021/12/11 06:28:35;;;;;;;4.88;2.90;;;;;;;;;;6301767;28;20016;-83
2021/12/11 06:31:36;;;;;;;4.78;3.00;;;;;;;;;;6318664;28;20064;-84
2021/12/11 06:34:38;;;;;;;3.70;3.22;;;;;;;;;;6320100;28;20024;-83
2021/12/11 06:37:39;;;;;;;4.85;3.30;;;;;;;;;;6318773;28;20020;-82
2021/12/11 06:40:39;;;;;;;3.95;3.20;;;2.10;99.90;;;;;;6319673;28;20024;-83
2021/12/11 06:43:41;;;;;;;5.70;3.10;;;;;;;;;;6318458;28;20028;-84
2021/12/11 06:46:42;;;;;;;5.28;3.58;;;;;;;;;;6301616;28;20546;-83
2021/12/11 06:49:43;;;;;;;5.50;4.03;;;2.00;99.90;;;;;;6317729;28;20024;-84
2021/12/11 06:52:44;;;;;;;3.47;2.92;;;;;;;;;;6301338;28;20495;-83
2021/12/11 06:55:45;;;;;;;4.35;3.35;;;;;;;;;;6300730;28;21229;-85
2021/12/11 06:58:46;;;;;;;4.03;3.63;;;;;;;;;;6301489;28;20023;-83
2021/12/11 07:01:49;;;;;;;3.92;3.42;;;2.20;99.90;;;;;;6301331;28;20505;-83
2021/12/11 07:04:50;;;;;;;5.90;3.70;;;;;;;;;;6300984;28;20036;-83
2021/12/11 07:07:51;;;;;;;7.32;4.05;;;;;;;;;;6318198;28;20039;-83
2021/12/11 07:10:52;;;;;;;4.00;3.53;;;;;;;;;;6317786;28;20680;-84
2021/12/11 07:13:53;;;;;;;4.07;3.67;;;;;;;;;;6301090;28;20055;-83
2021/12/11 07:16:54;;;;;;;5.53;3.75;;;;;;;;;;6298210;28;20040;-83
2021/12/11 07:19:55;;;;;;;6.63;4.05;;;;;;;;;;6298560;28;20028;-84
2021/12/11 07:22:56;;;;;;;5.18;4.00;;;;;;;;;;6303126;28;20466;-84
2021/12/11 07:26:15;;;;;;;4.38;3.67;;;2.20;99.90;;;;;;6317631;28;20031;-83
2021/12/11 07:29:17;;;;;;;4.60;4.20;;;2.20;99.90;;;;;;6286598;28;20551;-84
2021/12/11 07:32:18;;;;;;;4.60;3.80;;;;;;;;;;6284082;28;20035;-82
2021/12/11 07:35:19;;;;;;;6.78;4.78;;;2.40;99.90;;;;;;6316695;28;20036;-84
2021/12/11 07:38:20;;;;;;;4.72;4.15;;;;;;;;;;6283193;28;20030;-82
2021/12/11 07:41:21;;;;;;;6.38;4.53;;;;;;;;;;6316855;28;20043;-83
2021/12/11 07:44:22;;;;;;;5.53;4.72;;;;;;;;;;6318327;28;20020;-83
2021/12/11 07:47:23;;;;;;;4.90;4.40;;;;;;;;;;6300380;28;20020;-81
2021/12/11 07:50:24;;;;;;;5.35;4.47;;;;;;;;;;6300080;28;20161;-83
2021/12/11 07:53:25;;;;;;;4.82;4.40;;;2.30;99.90;;;;;;6316701;28;20517;-81
2021/12/11 07:56:26;;;;;;;5.05;4.00;;;;;;;;;;6299143;28;20071;-84
2021/12/11 07:59:27;;;;;;;5.25;4.22;;;;;;;;;;6317073;28;20032;-83
2021/12/11 08:02:28;;;;;;;6.03;4.53;;;;;;;;;;6315809;28;20020;-88
2021/12/11 08:05:29;;;;;;;5.72;3.97;;;;;;;;;;6293531;28;20382;-87
2021/12/11 08:08:30;;;;;;;5.30;4.32;;;;;;;;;;6315056;28;20028;-86
2021/12/11 08:11:31;;;;;;;5.78;4.45;;;;;;;;;;6299556;28;20039;-86
2021/12/11 08:14:32;;;;;;;5.28;4.63;;;;;;;;;;6282865;28;20072;-86
2021/12/11 08:17:33;;;;;;;4.93;4.43;;;;;;;;;;6298656;28;20030;-86
2021/12/11 08:20:34;;;;;;;6.15;4.78;;;;;;;;;;6299319;28;20419;-85
2021/12/11 08:23:43;;;;;;;4.70;4.30;;;;;;;;;;6299006;28;20029;-85
2021/12/11 08:26:44;;;;;;;4.47;4.07;;;;;;;;;;6315896;28;20016;-85
2021/12/11 08:29:47;;;;;;;4.22;3.63;;;2.60;99.90;;;;;;6299043;28;20055;-85
2021/12/11 08:32:48;;;;;;;4.78;4.28;;;2.40;99.90;;;;;;6283764;28;20035;-85
2021/12/11 08:35:51;;;;;;;7.57;3.95;;;;;;;;;;6282304;28;20040;-87
2021/12/11 08:38:52;;;;;;;11.13;6.25;;;;;;;;;;6297966;28;20028;-84
2021/12/11 08:41:54;;;;;;;4.90;3.63;;;;;;;;;;6298074;28;20020;-82
2021/12/11 08:45:04;;;;;;;4.35;3.17;;;;;;;;;;6296274;28;20082;-89
2021/12/11 08:48:05;;;;;;;3.40;3.10;;;;;;;;;;6301173;28;20115;-90
2021/12/11 08:51:09;;;;;;;3.58;3.28;;;4.40;99.90;;;;;;6302540;28;20078;-88
2021/12/11 08:54:20;;;;;;;3.33;3.03;;;3.60;99.90;;;;;;6282321;28;20374;-90
2021/12/11 08:57:23;;;;;;;3.70;3.30;;;3.60;99.90;;;;;;6298786;28;20066;-84
2021/12/11 09:00:29;;;;;;;3.78;3.22;;;3.30;99.90;;;;;;6282860;28;20132;-85
2021/12/11 09:03:44;;;;;;;3.97;3.15;;;3.50;99.90;;;;;;6317895;28;20123;-87
2021/12/11 09:07:06;;;;;;;3.53;3.20;;;3.50;99.90;;;;;;6301284;28;20509;-85
2021/12/11 09:10:30;;;;;;;4.37;3.73;;;3.20;99.90;;;;;;6300580;28;20032;-83
2021/12/11 09:13:35;;;;;;;7.13;3.85;;;3.20;99.90;;;;;;6312552;28;20456;-83
2021/12/11 09:16:47;;;;;;;4.65;3.85;;;3.50;99.90;;;;;;6299299;28;20032;-86
2021/12/11 09:20:20;;;;;;;3.83;3.50;;;3.70;99.90;;;;;;6300644;28;20385;-84
2021/12/11 09:23:50;;;;;;;3.80;3.33;;;3.20;99.90;;;;;;6322609;28;20067;-83
2021/12/11 09:26:57;;;;;;;4.25;3.85;;;3.90;99.90;;;;;;6315034;28;20040;-84
2021/12/11 09:30:01;;;;;;;4.13;3.72;;;3.10;99.90;;;;;;6301281;28;20703;-83
2021/12/11 09:33:05;;;;;;;3.72;3.40;;;3.50;99.90;;;;;;6320135;28;20031;-84
2021/12/11 09:36:18;;;;;;;3.85;3.55;;;3.30;99.90;;;;;;6286142;28;20124;-87
2021/12/11 09:39:25;;;;;;;5.95;3.70;;;3.90;99.90;;;;;;6287164;28;20431;-86
2021/12/11 09:42:26;;;;;;;4.68;3.97;;;;;;;;;;6303411;28;20473;-86
2021/12/11 09:45:27;;;;;;;4.18;3.53;;;4.50;99.90;;;;;;6320092;28;20062;-85
2021/12/11 09:48:28;;;;;;;3.67;3.05;;;;;;;;;;6303072;28;20522;-87
2021/12/11 09:51:33;;;;;;;3.40;3.10;;;;;;;;;;6302375;28;20120;-88
2021/12/11 09:54:35;;;;;;;3.55;3.03;;;;;;;;;;6303247;28;20028;-86
2021/12/11 09:57:38;;;;;;;5.00;3.30;;;4.10;99.90;;;;;;6320891;28;20038;-89
2021/12/11 10:00:51;;;;;;;3.78;3.47;;;4.60;99.90;;;;;;6304963;28;20579;-88
2021/12/11 10:03:56;;;;;;;3.78;3.47;;;4.70;99.90;;;;;;6286161;28;20035;-87
2021/12/11 10:07:24;;;;;;;11.35;4.50;;;5.70;99.90;;;;;;6301831;28;20032;-89
2021/12/11 10:10:23;;;;;;;4.28;3.88;;;5.20;99.90;;;;;;6307285;28;20043;-84
2021/12/11 10:13:26;;;;;;;4.72;3.78;;;;;;;;;;6301899;28;20481;-83
2021/12/11 10:16:28;;;;;;;;;;;5.00;99.90;;;;;;6319791;28;20802;-88
2021/12/11 10:19:29;;;;;;;9.07;4.13;;;4.80;99.90;;;;;;6321131;28;19926;-89
2021/12/11 10:22:37;;;;;;;7.95;5.22;;;5.20;99.90;;;;;;6285830;28;20028;-90
2021/12/11 10:25:38;;;;;;;4.80;3.97;;;5.60;99.90;;;;;;6302757;28;20158;-84
2021/12/11 10:28:45;;;;;;;4.35;3.85;;;4.10;99.90;;;;;;6284070;28;20024;-84
2021/12/11 10:31:52;;;;;;;4.78;3.53;;;6.00;99.90;;;;;;6284859;28;20131;-87
2021/12/11 10:34:57;;;;;;;4.20;3.90;;;5.30;99.90;;;;;;6286750;28;20109;-89
2021/12/11 10:37:57;;;;;;;4.18;3.78;;;5.30;99.90;;;;;;6303549;28;20028;-88
2021/12/11 10:40:59;;;;;;;4.20;3.80;;;5.40;99.90;;;;;;6285258;28;20110;-89
2021/12/11 10:44:33;;;;;;;3.90;3.50;;;5.00;99.90;;;;;;6286711;28;20081;-86
2021/12/11 10:47:48;;;;;;;4.78;3.60;;;5.20;99.90;;;;;;6301478;28;20273;-86
2021/12/11 10:54:52;;;;;;;5.75;3.70;;;;;;;;;;6319687;28;20043;-89
2021/12/11 10:57:57;;;;;;;6.20;4.53;;;5.00;99.90;;;;;;6300446;28;20047;-87
2021/12/11 11:01:55;;;;;;;5.13;4.18;;;5.00;99.90;;;;;;6284000;28;20035;-86
2021/12/11 11:05:03;;;;;;;5.45;3.95;;;4.90;99.90;;;;;;6260683;28;20029;-89
2021/12/11 11:08:06;;;;;;;6.43;5.00;;;4.60;99.90;;;;;;6234752;28;20459;-86
2021/12/11 11:11:09;;;;;;;5.10;4.32;;;4.70;99.90;;;;;;6215173;28;20120;-87
2021/12/11 11:18:08;;;;;;;6.50;4.72;;;4.60;99.90;;;;;;6246989;28;20034;-88
2021/12/11 11:21:12;;;;;;;5.85;4.53;;;4.50;99.90;;;;;;6227036;28;20037;-85
2021/12/11 11:24:13;;;;;;;4.40;3.97;;;4.40;99.90;;;;;;6239903;28;20029;-85
2021/12/11 11:27:14;;;;;;;5.88;4.13;;;;;;;;;;6225598;28;20052;-85
2021/12/11 11:30:17;;;;;;;4.97;4.00;;;4.40;99.90;;;;;;6227836;28;20050;-87
2021/12/11 11:33:18;;;;;;;12.82;5.63;;;4.80;99.90;;;;;;6228981;28;20031;-85
2021/12/11 11:36:21;;;;;;;5.35;4.47;;;4.80;99.90;;;;;;6292560;28;20036;-84
2021/12/11 11:39:22;;;;;;;13.15;6.28;;;5.00;99.90;;;;;;6316428;28;20020;-82
2021/12/11 11:42:23;;;;;;;5.78;4.80;;;;;;;;;;6316789;28;20028;-84
2021/12/11 11:45:25;;;;;;;5.00;3.90;;;4.80;99.90;;;;;;6316976;28;20077;-84
2021/12/11 11:48:32;;;;;;;7.03;4.23;;;4.70;99.90;;;;;;6299688;28;20028;-87
2021/12/11 11:51:46;;;;;;;9.38;4.72;;;4.80;99.90;;;;;;6300720;28;20833;-86
2021/12/11 11:54:49;;;;;;;5.22;4.25;;;4.90;99.90;;;;;;6281801;28;20036;-85
2021/12/11 11:57:50;;;;;;;;;;;5.10;99.90;;;;;;6282692;28;20085;-87
2021/12/11 12:00:53;;;;;;;4.18;3.78;;;6.30;99.90;;;;;;6299071;28;19919;-85
2021/12/11 12:03:55;;;;;;;8.10;6.03;;;4.90;99.90;;;;;;6280353;28;20039;-86
2021/12/11 12:06:59;;;;;;;4.82;4.35;;;4.60;99.90;;;;;;6282788;28;20039;-84
2021/12/11 12:10:11;;;;;;;4.82;4.15;;;4.60;99.90;;;;;;6283528;28;20085;-84
2021/12/11 12:13:12;;;;;;;4.43;4.03;;;;;;;;;;6315916;28;20040;-86
2021/12/11 12:16:13;;;;;;;4.25;3.63;;;;;;;;;;6299189;28;20393;-87
2021/12/11 12:19:14;;;;;;;6.25;4.55;;;;;;;;;;6315849;28;20347;-85
2021/12/11 12:22:16;;;;;;;4.72;3.85;;;;;;;;;;6296842;28;20095;-85
2021/12/11 12:25:17;;;;;;;4.63;3.88;;;;;;;;;;6315459;28;20028;-86
2021/12/11 12:28:18;;;;;;;4.97;3.53;;;;;;;;;;6314761;28;20028;-84
2021/12/11 12:31:22;;;;;;;4.05;3.40;;;4.00;99.90;;;;;;6298180;28;20372;-84
2021/12/11 12:34:23;;;;;;;8.93;6.60;;;4.00;99.90;;;;;;6282479;28;20043;-83
2021/12/11 12:37:24;;;;;;;37.00;22.75;;;4.10;99.90;;;;;;6282151;28;20028;-83
2021/12/11 12:40:29;;;;;;;15.55;11.30;;;4.20;99.90;;;;;;6283051;28;20077;-84
2021/12/11 12:46:55;;;;;;;6.95;6.30;;;4.20;99.90;;;;;;6302018;28;20036;-82
2021/12/11 12:49:58;;;;;;;5.80;5.18;;;4.10;99.90;;;;;;6299621;28;20032;-83
2021/12/11 12:52:59;;;;;;;6.82;5.68;;;;;;;;;;6320146;28;20055;-81
2021/12/11 12:56:06;;;;;;;6.38;5.53;;;4.30;99.90;;;;;;6303493;28;20040;-80
2021/12/11 12:59:11;;;;;;;5.20;4.45;;;4.10;99.90;;;;;;6287524;28;20042;-83
2021/12/11 13:02:16;;;;;;;9.23;5.97;;;4.30;99.90;;;;;;6320369;28;20111;-84
2021/12/11 13:05:33;;;;;;;5.93;4.60;;;4.40;99.90;;;;;;6287389;28;20020;-83
2021/12/11 13:08:37;;;;;;;6.18;4.97;;;4.30;99.90;;;;;;6305790;28;20052;-84
2021/12/11 13:11:51;;;;;;;5.45;4.82;;;4.10;99.90;;;;;;6320125;28;20059;-83
2021/12/11 13:14:54;;;;;;;9.23;7.70;;;4.10;99.90;;;;;;6287181;28;20036;-83
2021/12/11 13:17:55;;;;;;;6.65;3.97;;;3.60;99.90;;;;;;6286680;28;20482;-82
2021/12/11 13:21:05;;;;;;;4.80;4.30;;;3.90;99.90;;;;;;6286075;28;20028;-83
2021/12/11 13:24:07;;;;;;;5.30;4.25;;;3.90;99.90;;;;;;6319808;28;20035;-81
2021/12/11 13:27:09;;;;;;;5.10;4.57;;;3.80;99.90;;;;;;6286227;28;20043;-83
2021/12/11 13:30:14;;;;;;;5.70;5.00;;;3.60;99.90;;;;;;6319500;28;20048;-81
2021/12/11 13:33:16;;;;;;;5.75;5.15;;;3.60;99.90;;;;;;6286607;28;20051;-82
2021/12/11 13:36:18;;;;;;;7.37;6.27;;;;;;;;;;6318328;28;20114;-83
2021/12/11 13:39:19;;;;;;;5.63;5.03;;;3.70;99.90;;;;;;6318950;28;20262;-82
2021/12/11 13:42:22;;;;;;;6.38;5.03;;;3.60;99.90;;;;;;6302234;28;20043;-80
2021/12/11 13:45:26;;;;;;;6.18;5.30;;;3.50;99.90;;;;;;6319838;28;20070;-81
2021/12/11 13:48:26;;;;;;;6.18;5.10;;;3.50;99.90;;;;;;6286061;28;20031;-82
2021/12/11 13:51:30;;;;;;;10.65;5.65;;;3.80;99.90;;;;;;6302271;28;20044;-84
2021/12/11 13:54:31;;;;;;;6.45;4.93;;;;;;;;;;6301925;28;20481;-83
2021/12/11 13:57:32;;;;;;;5.50;4.95;;;;;;;;;;6319531;28;20024;-84
2021/12/11 14:00:43;;;;;;;7.68;5.60;;;3.90;99.90;;;;;;6318605;28;20020;-82
2021/12/11 14:03:44;;;;;;;6.15;5.05;;;;;;;;;;6285761;28;20083;-87
2021/12/11 14:06:49;;;;;;;6.07;4.75;;;;;;;;;;6302090;28;20069;-83
2021/12/11 14:09:52;;;;;;;5.25;4.72;;;4.00;99.90;;;;;;6302287;28;20024;-83
2021/12/11 14:12:56;;;;;;;5.28;4.60;;;3.90;99.90;;;;;;6302937;28;20028;-80
2021/12/11 14:15:57;;;;;;;6.53;5.38;;;3.20;99.90;;;;;;6300845;28;20051;-79
2021/12/11 14:18:58;;;;;;;7.70;5.80;;;4.10;99.90;;;;;;6285260;28;20043;-81
2021/12/11 14:22:01;;;;;;;7.22;5.60;;;3.90;99.90;;;;;;6301817;28;20028;-83
2021/12/11 14:25:01;;;;;;;5.70;4.90;;;3.90;99.90;;;;;;6286206;28;20032;-85
2021/12/11 14:28:05;;;;;;;8.35;5.80;;;3.80;99.90;;;;;;6301660;28;20051;-83
2021/12/11 14:31:09;;;;;;;6.93;5.25;;;3.70;99.90;;;;;;6285354;28;20056;-83
2021/12/11 14:34:09;;;;;;;7.30;5.15;;;3.90;99.90;;;;;;6284421;28;20048;-81
2021/12/11 14:37:10;;;;;;;7.43;6.07;;;3.70;99.90;;;;;;6301009;28;20103;-81
2021/12/11 14:40:12;;;;;;;6.47;5.10;;;3.70;99.90;;;;;;6300983;28;20028;-82
2021/12/11 14:43:14;;;;;;;6.70;4.95;;;3.50;99.90;;;;;;6300891;28;20020;-81
2021/12/11 14:46:15;;;;;;;6.57;5.88;;;3.70;99.90;;;;;;6301491;28;20032;-80
2021/12/11 14:49:16;;;;;;;8.40;6.03;;;3.90;99.90;;;;;;6300139;28;20078;-81
2021/12/11 14:52:17;;;;;;;7.65;6.10;;;3.40;99.90;;;;;;6299750;28;20059;-82
2021/12/11 14:55:22;;;;;;;8.43;6.30;;;4.00;99.90;;;;;;6315672;28;20055;-79
2021/12/11 14:58:23;;;;;;;11.13;8.73;;;3.40;99.90;;;;;;6300639;28;20032;-83
2021/12/11 15:01:47;;;;;;;7.72;6.93;;;3.40;99.90;;;;;;6284004;28;20032;-80
2021/12/11 15:04:49;;;;;;;7.57;6.53;;;3.10;99.90;;;;;;6318120;28;21259;-81
2021/12/11 15:07:51;;;;;;;8.13;6.40;;;3.30;99.90;;;;;;6284843;28;20032;-80
2021/12/11 15:10:53;;;;;;;13.05;7.32;;;4.90;99.90;;;;;;6299212;28;20039;-85
2021/12/11 15:13:56;;;;;;;11.48;8.35;;;5.00;99.90;;;;;;6299270;28;20070;-82
2021/12/11 15:17:01;;;;;;;;;;;4.90;99.90;;;;;;6301456;28;20035;-82
2021/12/11 15:20:08;;;;;;;8.60;6.57;;;3.50;99.90;;;;;;6315856;28;19998;-81
2021/12/11 15:23:09;;;;;;;8.13;6.55;;;3.30;99.90;;;;;;6283555;28;20538;-80
2021/12/11 15:26:10;;;;;;;9.93;7.40;;;3.30;99.90;;;;;;6300253;28;20024;-81
2021/12/11 15:29:13;;;;;;;7.95;6.35;;;3.60;99.90;;;;;;6282325;28;20465;-82
2021/12/11 15:32:14;;;;;;;12.25;7.38;;;;;;;;;;6300088;28;20028;-83
2021/12/11 15:35:17;;;;;;;7.47;5.65;;;3.20;99.90;;;;;;6299947;28;20391;-79
2021/12/11 15:38:18;;;;;;;7.13;5.80;;;3.60;99.90;;;;;;6280940;28;20028;-85
2021/12/11 15:41:19;;;;;;;8.32;5.63;;;3.20;99.90;;;;;;6316346;28;20390;-83
2021/12/11 15:44:22;;;;;;;7.37;6.13;;;3.50;99.90;;;;;;6300558;28;20122;-81
2021/12/11 15:47:24;;;;;;;7.22;5.78;;;3.30;99.90;;;;;;6283595;28;20099;-85
2021/12/11 15:50:28;;;;;;;6.65;5.90;;;3.10;99.90;;;;;;6299591;28;20428;-85
2021/12/11 15:53:29;;;;;;;28.20;17.55;;;3.30;99.90;;;;;;6299697;28;20035;-82
2021/12/11 15:56:30;;;;;;;7.82;7.03;;;5.30;99.90;;;;;;6316680;28;20036;-82
2021/12/11 15:59:30;;;;;;;8.55;6.45;;;3.40;99.90;;;;;;6300007;28;20028;-85
2021/12/11 16:02:32;;;;;;;7.20;5.72;;;;;;;;;;6300164;28;20373;-89
2021/12/11 16:05:32;;;;;;;8.50;6.72;;;3.20;99.90;;;;;;6300863;28;20092;-87
2021/12/11 16:08:34;;;;;;;9.40;6.93;;;3.40;99.90;;;;;;6301641;28;20024;-87
2021/12/11 16:11:39;;;;;;;8.35;7.32;;;3.10;99.90;;;;;;6283809;28;20080;-87
2021/12/11 16:14:39;;;;;;;8.75;6.85;;;2.90;99.90;;;;;;6284453;28;20464;-87
2021/12/11 16:17:40;;;;;;;9.20;7.38;;;;;;;;;;6283827;28;20028;-88
2021/12/11 16:20:45;;;;;;;8.80;6.45;;;2.90;99.90;;;;;;6300803;28;20029;-87
2021/12/11 16:23:56;;;;;;;9.02;6.63;;;3.00;99.90;;;;;;6284612;28;20039;-87
2021/12/11 16:26:57;;;;;;;11.30;7.18;;;3.10;99.90;;;;;;6289711;28;20032;-88
2021/12/11 16:29:58;;;;;;;9.52;7.20;;;;;;;;;;6288968;28;20074;-88
2021/12/11 16:32:59;;;;;;;13.30;8.65;;;0.40;99.90;;;;;;6305303;28;20068;-88
2021/12/11 16:36:00;;;;;;;9.43;7.75;;;;;;;;;;6288557;28;20052;-89
2021/12/11 16:39:02;;;;;;;9.13;7.47;;;3.60;99.90;;;;;;6305457;28;20024;-89
2021/12/11 16:42:05;;;;;;;25.80;17.02;;;3.10;99.90;;;;;;6289206;28;20450;-88
2021/12/11 16:45:09;;;;;;;12.30;9.25;;;3.10;99.90;;;;;;6289084;28;20390;-89
2021/12/11 16:48:12;;;;;;;10.13;7.93;;;4.10;99.90;;;;;;6288886;28;20032;-88
2021/12/11 16:51:13;;;;;;;11.35;7.47;;;3.20;99.90;;;;;;6288563;28;20024;-89
2021/12/11 16:54:14;;;;;;;8.88;7.70;;;5.00;99.90;;;;;;6288975;28;20046;-89
2021/12/11 16:57:14;;;;;;;8.73;7.10;;;5.20;99.90;;;;;;6288892;28;20059;-88
2021/12/11 17:00:17;;;;;;;12.32;11.02;;;5.40;99.90;;;;;;6291754;28;20024;-88
2021/12/11 17:03:18;;;;;;;24.50;16.90;;;;;;;;;;6288413;28;20031;-88
2021/12/11 17:06:21;;;;;;;16.10;11.73;;;3.10;99.90;;;;;;6304590;28;20024;-87
2021/12/11 17:09:22;;;;;;;15.68;10.15;;;3.30;99.90;;;;;;6288152;28;20031;-86